sensor_id;sensor_type;location;lat;lon;timestamp;pressure;altitude;pressure_sealevel;temperature
18713;BMP280;9485;49.386;8.674;2022-09-17T00:02:28;100071.06;;;13.76
18713;BMP280;9485;49.386;8.674;2022-09-17T00:07:51;100071.34;;;13.73
18713;BMP280;9485;49.386;8.674;2022-09-17T00:13:11;100058.97;;;13.70
18713;BMP280;9485;49.386;8.674;2022-09-17T00:18:33;100052.03;;;13.66
18713;BMP280;9485;49.386;8.674;2022-09-17T00:23:59;100060.34;;;13.64
18713;BMP280;9485;49.386;8.674;2022-09-17T00:29:20;100074.28;;;13.56
18713;BMP280;9485;49.386;8.674;2022-09-17T00:34:41;100071.50;;;13.51
18713;BMP280;9485;49.386;8.674;2022-09-17T00:40:05;100069.44;;;13.46
18713;BMP280;9485;49.386;8.674;2022-09-17T00:45:27;100072.09;;;13.39
18713;BMP280;9485;49.386;8.674;2022-09-17T00:50:52;100080.88;;;13.35
18713;BMP280;9485;49.386;8.674;2022-09-17T00:56:20;100075.19;;;13.35
18713;BMP280;9485;49.386;8.674;2022-09-17T01:01:42;100086.00;;;13.37
18713;BMP280;9485;49.386;8.674;2022-09-17T01:07:11;100089.38;;;13.41
18713;BMP280;9485;49.386;8.674;2022-09-17T01:12:57;100095.78;;;13.41
18713;BMP280;9485;49.386;8.674;2022-09-17T01:18:35;100096.56;;;13.42
18713;BMP280;9485;49.386;8.674;2022-09-17T01:24:48;100098.91;;;13.38
18713;BMP280;9485;49.386;8.674;2022-09-17T01:30:36;100105.88;;;13.31
18713;BMP280;9485;49.386;8.674;2022-09-17T01:36:12;100099.72;;;13.33
18713;BMP280;9485;49.386;8.674;2022-09-17T01:41:46;100097.16;;;13.29
18713;BMP280;9485;49.386;8.674;2022-09-17T01:47:18;100094.81;;;13.28
18713;BMP280;9485;49.386;8.674;2022-09-17T01:52:44;100089.94;;;13.23
18713;BMP280;9485;49.386;8.674;2022-09-17T01:58:16;100102.84;;;13.18
18713;BMP280;9485;49.386;8.674;2022-09-17T02:03:44;100095.69;;;13.12
18713;BMP280;9485;49.386;8.674;2022-09-17T02:09:12;100097.75;;;13.06
18713;BMP280;9485;49.386;8.674;2022-09-17T02:14:39;100098.31;;;12.99
18713;BMP280;9485;49.386;8.674;2022-09-17T02:20:06;100096.75;;;12.98
18713;BMP280;9485;49.386;8.674;2022-09-17T02:25:35;100105.28;;;12.92
18713;BMP280;9485;49.386;8.674;2022-09-17T02:30:56;100107.31;;;12.86
18713;BMP280;9485;49.386;8.674;2022-09-17T02:36:19;100104.00;;;12.77
18713;BMP280;9485;49.386;8.674;2022-09-17T02:41:58;100107.09;;;12.73
18713;BMP280;9485;49.386;8.674;2022-09-17T02:47:51;100106.06;;;12.71
18713;BMP280;9485;49.386;8.674;2022-09-17T02:53:33;100110.16;;;12.75
18713;BMP280;9485;49.386;8.674;2022-09-17T02:59:08;100106.31;;;12.78
18713;BMP280;9485;49.386;8.674;2022-09-17T03:04:33;100094.44;;;12.85
18713;BMP280;9485;49.386;8.674;2022-09-17T03:09:56;100091.06;;;12.87
18713;BMP280;9485;49.386;8.674;2022-09-17T03:15:17;100108.38;;;12.89
18713;BMP280;9485;49.386;8.674;2022-09-17T03:20:38;100110.66;;;12.96
18713;BMP280;9485;49.386;8.674;2022-09-17T03:26:01;100108.31;;;13.05
18713;BMP280;9485;49.386;8.674;2022-09-17T03:31:21;100110.88;;;13.14
18713;BMP280;9485;49.386;8.674;2022-09-17T03:36:42;100095.88;;;13.19
18713;BMP280;9485;49.386;8.674;2022-09-17T03:42:05;100107.75;;;13.23
18713;BMP280;9485;49.386;8.674;2022-09-17T03:47:26;100115.19;;;13.26
18713;BMP280;9485;49.386;8.674;2022-09-17T03:52:46;100124.94;;;13.36
18713;BMP280;9485;49.386;8.674;2022-09-17T03:58:09;100129.81;;;13.47
18713;BMP280;9485;49.386;8.674;2022-09-17T04:03:31;100140.06;;;13.55
18713;BMP280;9485;49.386;8.674;2022-09-17T04:08:51;100145.72;;;13.60
18713;BMP280;9485;49.386;8.674;2022-09-17T04:14:14;100141.31;;;13.65
18713;BMP280;9485;49.386;8.674;2022-09-17T04:19:34;100142.34;;;13.67
18713;BMP280;9485;49.386;8.674;2022-09-17T04:24:55;100130.97;;;13.67
18713;BMP280;9485;49.386;8.674;2022-09-17T04:30:17;100133.81;;;13.67
18713;BMP280;9485;49.386;8.674;2022-09-17T04:35:37;100136.88;;;13.69
18713;BMP280;9485;49.386;8.674;2022-09-17T04:40:58;100140.78;;;13.66
18713;BMP280;9485;49.386;8.674;2022-09-17T04:46:20;100154.44;;;13.68
18713;BMP280;9485;49.386;8.674;2022-09-17T04:51:41;100150.31;;;13.69
18713;BMP280;9485;49.386;8.674;2022-09-17T04:57:02;100150.31;;;13.69
18713;BMP280;9485;49.386;8.674;2022-09-17T05:02:24;100155.72;;;13.72
18713;BMP280;9485;49.386;8.674;2022-09-17T05:07:45;100154.16;;;13.71
18713;BMP280;9485;49.386;8.674;2022-09-17T05:13:06;100167.88;;;13.67
18713;BMP280;9485;49.386;8.674;2022-09-17T05:18:28;100169.75;;;13.48
18713;BMP280;9485;49.386;8.674;2022-09-17T05:23:49;100166.47;;;13.34
18713;BMP280;9485;49.386;8.674;2022-09-17T05:29:09;100185.84;;;13.19
18713;BMP280;9485;49.386;8.674;2022-09-17T05:34:32;100186.13;;;13.04
18713;BMP280;9485;49.386;8.674;2022-09-17T05:39:52;100189.25;;;12.95
18713;BMP280;9485;49.386;8.674;2022-09-17T05:45:13;100197.47;;;12.82
18713;BMP280;9485;49.386;8.674;2022-09-17T05:50:35;100194.66;;;12.72
18713;BMP280;9485;49.386;8.674;2022-09-17T05:55:56;100197.25;;;12.64
18713;BMP280;9485;49.386;8.674;2022-09-17T06:01:17;100208.84;;;12.61
18713;BMP280;9485;49.386;8.674;2022-09-17T06:06:39;100209.59;;;12.61
18713;BMP280;9485;49.386;8.674;2022-09-17T06:12:01;100205.22;;;12.60
18713;BMP280;9485;49.386;8.674;2022-09-17T06:17:21;100216.28;;;12.58
18713;BMP280;9485;49.386;8.674;2022-09-17T06:22:44;100209.09;;;12.57
18713;BMP280;9485;49.386;8.674;2022-09-17T06:28:05;100210.63;;;12.58
18713;BMP280;9485;49.386;8.674;2022-09-17T06:33:27;100219.38;;;12.60
18713;BMP280;9485;49.386;8.674;2022-09-17T06:38:49;100225.31;;;12.68
18713;BMP280;9485;49.386;8.674;2022-09-17T06:44:10;100225.28;;;12.73
18713;BMP280;9485;49.386;8.674;2022-09-17T06:49:30;100233.03;;;12.78
18713;BMP280;9485;49.386;8.674;2022-09-17T06:54:53;100228.66;;;12.88
18713;BMP280;9485;49.386;8.674;2022-09-17T07:00:14;100224.78;;;12.96
18713;BMP280;9485;49.386;8.674;2022-09-17T07:05:35;100229.94;;;13.03
18713;BMP280;9485;49.386;8.674;2022-09-17T07:10:57;100223.25;;;13.06
18713;BMP280;9485;49.386;8.674;2022-09-17T07:16:18;100218.06;;;13.10
18713;BMP280;9485;49.386;8.674;2022-09-17T07:21:39;100223.47;;;13.19
18713;BMP280;9485;49.386;8.674;2022-09-17T07:27:02;100237.91;;;13.27
18713;BMP280;9485;49.386;8.674;2022-09-17T07:32:23;100230.66;;;13.31
18713;BMP280;9485;49.386;8.674;2022-09-17T07:37:44;100231.16;;;13.41
18713;BMP280;9485;49.386;8.674;2022-09-17T07:43:07;100237.56;;;13.52
18713;BMP280;9485;49.386;8.674;2022-09-17T07:48:29;100237.25;;;13.66
18713;BMP280;9485;49.386;8.674;2022-09-17T07:53:50;100229.69;;;13.80
18713;BMP280;9485;49.386;8.674;2022-09-17T07:59:12;100234.25;;;13.99
18713;BMP280;9485;49.386;8.674;2022-09-17T08:04:33;100244.00;;;14.15
18713;BMP280;9485;49.386;8.674;2022-09-17T08:09:54;100248.34;;;14.27
18713;BMP280;9485;49.386;8.674;2022-09-17T08:15:17;100241.97;;;14.50
18713;BMP280;9485;49.386;8.674;2022-09-17T08:20:38;100239.59;;;14.89
18713;BMP280;9485;49.386;8.674;2022-09-17T08:26:00;100247.03;;;15.21
18713;BMP280;9485;49.386;8.674;2022-09-17T08:31:25;100253.53;;;15.45
18713;BMP280;9485;49.386;8.674;2022-09-17T08:36:47;100250.94;;;15.71
18713;BMP280;9485;49.386;8.674;2022-09-17T08:42:16;100253.03;;;15.89
18713;BMP280;9485;49.386;8.674;2022-09-17T08:47:42;100245.72;;;15.93
18713;BMP280;9485;49.386;8.674;2022-09-17T08:53:26;100248.56;;;15.93
18713;BMP280;9485;49.386;8.674;2022-09-17T08:59:19;100245.66;;;15.99
18713;BMP280;9485;49.386;8.674;2022-09-17T09:05:01;100251.03;;;16.02
18713;BMP280;9485;49.386;8.674;2022-09-17T09:10:28;100242.81;;;15.99
18713;BMP280;9485;49.386;8.674;2022-09-17T09:15:57;100237.78;;;16.91
18713;BMP280;9485;49.386;8.674;2022-09-17T09:21:26;100241.38;;;17.23
18713;BMP280;9485;49.386;8.674;2022-09-17T09:27:00;100244.00;;;17.21
18713;BMP280;9485;49.386;8.674;2022-09-17T09:32:42;100247.56;;;17.79
18713;BMP280;9485;49.386;8.674;2022-09-17T09:38:31;100241.38;;;18.60
18713;BMP280;9485;49.386;8.674;2022-09-17T09:44:00;100239.00;;;18.51
18713;BMP280;9485;49.386;8.674;2022-09-17T09:49:39;100247.31;;;18.28
18713;BMP280;9485;49.386;8.674;2022-09-17T10:01:15;100240.84;;;18.02
18713;BMP280;9485;49.386;8.674;2022-09-17T10:06:40;100226.78;;;20.23
18713;BMP280;9485;49.386;8.674;2022-09-17T10:12:13;100224.22;;;22.43
18713;BMP280;9485;49.386;8.674;2022-09-17T10:17:34;100227.75;;;22.66
18713;BMP280;9485;49.386;8.674;2022-09-17T10:22:55;100227.41;;;22.15
18713;BMP280;9485;49.386;8.674;2022-09-17T10:28:44;100222.41;;;22.62
18713;BMP280;9485;49.386;8.674;2022-09-17T10:34:19;100230.47;;;22.09
18713;BMP280;9485;49.386;8.674;2022-09-17T10:39:40;100248.06;;;21.37
18713;BMP280;9485;49.386;8.674;2022-09-17T10:45:22;100237.50;;;20.30
18713;BMP280;9485;49.386;8.674;2022-09-17T10:50:48;100226.47;;;19.98
18713;BMP280;9485;49.386;8.674;2022-09-17T10:56:19;100217.59;;;20.24
18713;BMP280;9485;49.386;8.674;2022-09-17T11:01:59;100208.91;;;20.59
18713;BMP280;9485;49.386;8.674;2022-09-17T11:07:32;100216.84;;;21.11
18713;BMP280;9485;49.386;8.674;2022-09-17T11:13:17;100202.84;;;21.45
18713;BMP280;9485;49.386;8.674;2022-09-17T11:18:44;100200.38;;;21.41
18713;BMP280;9485;49.386;8.674;2022-09-17T11:24:38;100199.59;;;21.33
18713;BMP280;9485;49.386;8.674;2022-09-17T11:30:44;100209.19;;;21.36
18713;BMP280;9485;49.386;8.674;2022-09-17T11:36:16;100227.56;;;21.55
18713;BMP280;9485;49.386;8.674;2022-09-17T11:41:41;100210.88;;;21.54
18713;BMP280;9485;49.386;8.674;2022-09-17T11:47:12;100216.59;;;21.76
18713;BMP280;9485;49.386;8.674;2022-09-17T11:52:43;100218.72;;;21.61
18713;BMP280;9485;49.386;8.674;2022-09-17T11:58:13;100220.06;;;21.52
18713;BMP280;9485;49.386;8.674;2022-09-17T12:03:40;100214.72;;;21.41
18713;BMP280;9485;49.386;8.674;2022-09-17T12:09:14;100210.72;;;21.22
18713;BMP280;9485;49.386;8.674;2022-09-17T12:14:45;100211.28;;;21.06
18713;BMP280;9485;49.386;8.674;2022-09-17T12:20:23;100210.13;;;21.23
18713;BMP280;9485;49.386;8.674;2022-09-17T12:25:58;100204.56;;;21.48
18713;BMP280;9485;49.386;8.674;2022-09-17T12:31:31;100202.47;;;21.63
18713;BMP280;9485;49.386;8.674;2022-09-17T12:37:05;100192.09;;;21.75
18713;BMP280;9485;49.386;8.674;2022-09-17T12:42:48;100187.22;;;23.61
18713;BMP280;9485;49.386;8.674;2022-09-17T12:49:18;100186.31;;;25.69
18713;BMP280;9485;49.386;8.674;2022-09-17T13:00:54;100197.16;;;25.87
18713;BMP280;9485;49.386;8.674;2022-09-17T13:06:55;100181.00;;;26.41
18713;BMP280;9485;49.386;8.674;2022-09-17T13:12:31;100182.97;;;26.48
18713;BMP280;9485;49.386;8.674;2022-09-17T13:18:04;100173.81;;;26.52
18713;BMP280;9485;49.386;8.674;2022-09-17T13:23:35;100168.31;;;26.65
18713;BMP280;9485;49.386;8.674;2022-09-17T13:28:57;100166.63;;;26.62
18713;BMP280;9485;49.386;8.674;2022-09-17T13:34:30;100170.06;;;26.02
18713;BMP280;9485;49.386;8.674;2022-09-17T13:39:51;100166.03;;;25.05
18713;BMP280;9485;49.386;8.674;2022-09-17T13:45:14;100152.66;;;24.64
18713;BMP280;9485;49.386;8.674;2022-09-17T13:50:39;100154.22;;;25.10
18713;BMP280;9485;49.386;8.674;2022-09-17T13:56:27;100160.38;;;24.88
18713;BMP280;9485;49.386;8.674;2022-09-17T14:02:25;100152.78;;;24.40
18713;BMP280;9485;49.386;8.674;2022-09-17T14:07:51;100148.34;;;23.86
18713;BMP280;9485;49.386;8.674;2022-09-17T14:13:40;100145.88;;;24.26
18713;BMP280;9485;49.386;8.674;2022-09-17T14:19:16;100149.38;;;24.08
18713;BMP280;9485;49.386;8.674;2022-09-17T14:24:48;100142.81;;;23.64
18713;BMP280;9485;49.386;8.674;2022-09-17T14:30:17;100153.13;;;23.16
18713;BMP280;9485;49.386;8.674;2022-09-17T14:35:54;100143.28;;;22.70
18713;BMP280;9485;49.386;8.674;2022-09-17T14:41:22;100148.13;;;22.36
18713;BMP280;9485;49.386;8.674;2022-09-17T14:46:52;100143.50;;;22.01
18713;BMP280;9485;49.386;8.674;2022-09-17T14:52:25;100145.31;;;21.82
18713;BMP280;9485;49.386;8.674;2022-09-17T14:57:51;100139.00;;;21.76
18713;BMP280;9485;49.386;8.674;2022-09-17T15:03:21;100152.28;;;21.57
18713;BMP280;9485;49.386;8.674;2022-09-17T15:08:44;100143.31;;;21.38
18713;BMP280;9485;49.386;8.674;2022-09-17T15:14:15;100141.81;;;21.07
18713;BMP280;9485;49.386;8.674;2022-09-17T15:19:39;100134.19;;;20.80
18713;BMP280;9485;49.386;8.674;2022-09-17T15:25:12;100134.53;;;20.61
18713;BMP280;9485;49.386;8.674;2022-09-17T15:30:36;100139.66;;;20.40
18713;BMP280;9485;49.386;8.674;2022-09-17T15:36:01;100135.97;;;20.18
18713;BMP280;9485;49.386;8.674;2022-09-17T15:41:32;100144.50;;;19.95
18713;BMP280;9485;49.386;8.674;2022-09-17T15:46:54;100149.56;;;19.74
18713;BMP280;9485;49.386;8.674;2022-09-17T15:52:34;100164.34;;;19.58
18713;BMP280;9485;49.386;8.674;2022-09-17T15:57:56;100166.00;;;19.46
18713;BMP280;9485;49.386;8.674;2022-09-17T16:04:03;100165.19;;;19.38
18713;BMP280;9485;49.386;8.674;2022-09-17T16:09:52;100159.81;;;19.35
18713;BMP280;9485;49.386;8.674;2022-09-17T16:15:15;100160.41;;;19.41
18713;BMP280;9485;49.386;8.674;2022-09-17T16:20:38;100176.69;;;19.46
18713;BMP280;9485;49.386;8.674;2022-09-17T16:25:59;100176.28;;;19.42
18713;BMP280;9485;49.386;8.674;2022-09-17T16:31:20;100183.25;;;19.26
18713;BMP280;9485;49.386;8.674;2022-09-17T16:36:42;100185.72;;;19.01
18713;BMP280;9485;49.386;8.674;2022-09-17T16:42:03;100192.28;;;18.89
18713;BMP280;9485;49.386;8.674;2022-09-17T16:47:23;100198.19;;;18.71
18713;BMP280;9485;49.386;8.674;2022-09-17T16:52:46;100207.25;;;18.41
18713;BMP280;9485;49.386;8.674;2022-09-17T16:58:07;100250.84;;;18.21
18713;BMP280;9485;49.386;8.674;2022-09-17T17:03:28;100247.34;;;17.77
18713;BMP280;9485;49.386;8.674;2022-09-17T17:08:50;100268.38;;;17.22
18713;BMP280;9485;49.386;8.674;2022-09-17T17:14:11;100274.38;;;16.74
18713;BMP280;9485;49.386;8.674;2022-09-17T17:19:32;100287.88;;;16.37
18713;BMP280;9485;49.386;8.674;2022-09-17T17:24:55;100264.97;;;16.06
18713;BMP280;9485;49.386;8.674;2022-09-17T17:30:16;100256.72;;;15.84
18713;BMP280;9485;49.386;8.674;2022-09-17T17:35:38;100257.69;;;15.68
18713;BMP280;9485;49.386;8.674;2022-09-17T17:41:06;100263.25;;;15.55
18713;BMP280;9485;49.386;8.674;2022-09-17T17:46:27;100260.31;;;15.42
18713;BMP280;9485;49.386;8.674;2022-09-17T17:51:48;100264.09;;;15.26
18713;BMP280;9485;49.386;8.674;2022-09-17T17:57:10;100268.34;;;15.09
18713;BMP280;9485;49.386;8.674;2022-09-17T18:02:31;100274.97;;;14.93
18713;BMP280;9485;49.386;8.674;2022-09-17T18:07:51;100287.00;;;14.75
18713;BMP280;9485;49.386;8.674;2022-09-17T18:13:13;100286.88;;;14.57
18713;BMP280;9485;49.386;8.674;2022-09-17T18:18:36;100301.19;;;14.40
18713;BMP280;9485;49.386;8.674;2022-09-17T18:23:57;100304.88;;;14.25
18713;BMP280;9485;49.386;8.674;2022-09-17T18:29:19;100322.75;;;14.14
18713;BMP280;9485;49.386;8.674;2022-09-17T18:34:40;100327.13;;;14.04
18713;BMP280;9485;49.386;8.674;2022-09-17T18:40:01;100339.28;;;13.99
18713;BMP280;9485;49.386;8.674;2022-09-17T18:45:23;100342.69;;;13.92
18713;BMP280;9485;49.386;8.674;2022-09-17T18:50:55;100339.56;;;13.90
18713;BMP280;9485;49.386;8.674;2022-09-17T18:56:19;100354.56;;;13.85
18713;BMP280;9485;49.386;8.674;2022-09-17T19:01:41;100358.97;;;13.81
18713;BMP280;9485;49.386;8.674;2022-09-17T19:07:02;100373.41;;;13.77
18713;BMP280;9485;49.386;8.674;2022-09-17T19:12:23;100374.44;;;13.80
18713;BMP280;9485;49.386;8.674;2022-09-17T19:17:44;100383.22;;;13.87
18713;BMP280;9485;49.386;8.674;2022-09-17T19:23:06;100378.03;;;13.91
18713;BMP280;9485;49.386;8.674;2022-09-17T19:28:27;100384.72;;;13.94
18713;BMP280;9485;49.386;8.674;2022-09-17T19:33:49;100389.38;;;13.91
18713;BMP280;9485;49.386;8.674;2022-09-17T19:39:10;100390.16;;;13.92
18713;BMP280;9485;49.386;8.674;2022-09-17T19:44:30;100389.38;;;13.91
18713;BMP280;9485;49.386;8.674;2022-09-17T19:49:54;100387.28;;;13.97
18713;BMP280;9485;49.386;8.674;2022-09-17T19:55:16;100394.03;;;14.00
18713;BMP280;9485;49.386;8.674;2022-09-17T20:00:38;100404.84;;;14.01
18713;BMP280;9485;49.386;8.674;2022-09-17T20:06:03;100407.41;;;14.05
18713;BMP280;9485;49.386;8.674;2022-09-17T20:11:25;100406.91;;;14.06
18713;BMP280;9485;49.386;8.674;2022-09-17T20:16:45;100411.03;;;14.05
18713;BMP280;9485;49.386;8.674;2022-09-17T20:22:07;100413.84;;;14.05
18713;BMP280;9485;49.386;8.674;2022-09-17T20:27:28;100416.69;;;14.05
18713;BMP280;9485;49.386;8.674;2022-09-17T20:32:48;100416.97;;;14.07
18713;BMP280;9485;49.386;8.674;2022-09-17T20:38:10;100424.94;;;14.09
18713;BMP280;9485;49.386;8.674;2022-09-17T20:43:32;100428.34;;;14.13
18713;BMP280;9485;49.386;8.674;2022-09-17T20:48:53;100425.72;;;14.15
18713;BMP280;9485;49.386;8.674;2022-09-17T20:54:16;100430.88;;;14.22
18713;BMP280;9485;49.386;8.674;2022-09-17T20:59:37;100433.72;;;14.27
18713;BMP280;9485;49.386;8.674;2022-09-17T21:05:10;100439.66;;;14.29
18713;BMP280;9485;49.386;8.674;2022-09-17T21:10:32;100437.06;;;14.31
18713;BMP280;9485;49.386;8.674;2022-09-17T21:15:57;100443.78;;;14.33
18713;BMP280;9485;49.386;8.674;2022-09-17T21:21:17;100443.50;;;14.31
18713;BMP280;9485;49.386;8.674;2022-09-17T21:26:39;100437.34;;;14.22
18713;BMP280;9485;49.386;8.674;2022-09-17T21:32:01;100459.81;;;14.20
18713;BMP280;9485;49.386;8.674;2022-09-17T21:37:21;100469.13;;;14.15
18713;BMP280;9485;49.386;8.674;2022-09-17T21:42:43;100453.38;;;14.14
18713;BMP280;9485;49.386;8.674;2022-09-17T21:48:03;100463.97;;;14.14
18713;BMP280;9485;49.386;8.674;2022-09-17T21:53:24;100452.59;;;14.14
18713;BMP280;9485;49.386;8.674;2022-09-17T21:58:51;100454.13;;;14.15
18713;BMP280;9485;49.386;8.674;2022-09-17T22:04:15;100459.53;;;14.18
18713;BMP280;9485;49.386;8.674;2022-09-17T22:09:35;100466.28;;;14.21
18713;BMP280;9485;49.386;8.674;2022-09-17T22:14:57;100461.09;;;14.19
18713;BMP280;9485;49.386;8.674;2022-09-17T22:20:18;100460.34;;;14.19
18713;BMP280;9485;49.386;8.674;2022-09-17T22:25:39;100468.31;;;14.20
18713;BMP280;9485;49.386;8.674;2022-09-17T22:31:04;100476.09;;;14.20
18713;BMP280;9485;49.386;8.674;2022-09-17T22:36:26;100469.63;;;14.19
18713;BMP280;9485;49.386;8.674;2022-09-17T22:41:46;100463.94;;;14.19
18713;BMP280;9485;49.386;8.674;2022-09-17T22:47:08;100459.81;;;14.20
18713;BMP280;9485;49.386;8.674;2022-09-17T22:52:29;100456.97;;;14.20
18713;BMP280;9485;49.386;8.674;2022-09-17T22:57:49;100452.06;;;14.21
18713;BMP280;9485;49.386;8.674;2022-09-17T23:03:11;100467.03;;;14.21
18713;BMP280;9485;49.386;8.674;2022-09-17T23:08:33;100474.00;;;14.20
18713;BMP280;9485;49.386;8.674;2022-09-17T23:13:57;100458.50;;;14.21
18713;BMP280;9485;49.386;8.674;2022-09-17T23:19:22;100460.59;;;14.21
18713;BMP280;9485;49.386;8.674;2022-09-17T23:24:42;100456.44;;;14.22
18713;BMP280;9485;49.386;8.674;2022-09-17T23:30:05;100452.84;;;14.21
18713;BMP280;9485;49.386;8.674;2022-09-17T23:35:27;100466.00;;;14.24
18713;BMP280;9485;49.386;8.674;2022-09-17T23:40:48;100459.53;;;14.24
18713;BMP280;9485;49.386;8.674;2022-09-17T23:46:08;100453.84;;;14.24
18713;BMP280;9485;49.386;8.674;2022-09-17T23:51:35;100451.53;;;14.27
18713;BMP280;9485;49.386;8.674;2022-09-17T23:56:57;100443.25;;;14.29
